createdAt,value
2023-12-09T00:03:10.842Z,19.02
2023-12-09T00:08:02.890Z,18.70
2023-12-09T00:12:55.790Z,18.23
2023-12-09T00:17:47.592Z,19.75
2023-12-09T00:22:39.748Z,18.65
2023-12-09T00:27:31.702Z,24.40
2023-12-09T00:32:23.746Z,20.98
2023-12-09T00:37:15.761Z,19.50
2023-12-09T00:42:07.648Z,22.48
2023-12-09T00:46:59.469Z,21.55
2023-12-09T00:51:51.278Z,20.75
2023-12-09T00:56:43.122Z,28.15
2023-12-09T01:01:35.149Z,27.52
2023-12-09T01:06:28.464Z,25.67
2023-12-09T01:11:20.258Z,26.08
2023-12-09T01:16:12.076Z,25.33
2023-12-09T01:21:04.383Z,28.30
2023-12-09T01:25:56.216Z,30.13
2023-12-09T01:30:48.113Z,26.40
2023-12-09T01:35:40.064Z,26.55
2023-12-09T01:40:31.971Z,29.00
2023-12-09T01:45:23.835Z,24.58
2023-12-09T01:50:18.819Z,26.92
2023-12-09T01:55:12.089Z,24.98
2023-12-09T02:00:05.180Z,25.55
2023-12-09T02:04:57.681Z,27.00
2023-12-09T02:09:49.778Z,25.25
2023-12-09T02:14:47.616Z,24.90
2023-12-09T02:19:39.720Z,28.00
2023-12-09T02:24:31.910Z,26.67
2023-12-09T02:29:26.097Z,25.15
2023-12-09T02:34:18.266Z,24.40
2023-12-09T02:39:11.553Z,26.05
2023-12-09T02:44:05.573Z,22.38
2023-12-09T02:49:01.161Z,23.67
2023-12-09T02:53:53.170Z,24.90
2023-12-09T02:58:45.091Z,25.10
2023-12-09T03:03:36.952Z,27.85
2023-12-09T03:08:28.815Z,25.27
2023-12-09T03:13:20.654Z,24.88
2023-12-09T03:18:12.627Z,27.58
2023-12-09T03:23:04.495Z,25.05
2023-12-09T03:27:57.309Z,27.90
2023-12-09T03:32:50.358Z,28.30
2023-12-09T03:37:42.243Z,25.85
2023-12-09T03:42:34.129Z,26.65
2023-12-09T03:47:29.440Z,23.95
2023-12-09T03:52:21.782Z,20.20
2023-12-09T03:57:15.718Z,23.73
2023-12-09T04:02:07.656Z,23.88
2023-12-09T04:06:59.610Z,25.33
2023-12-09T04:11:51.438Z,29.50
2023-12-09T04:16:44.041Z,25.52
2023-12-09T04:21:36.042Z,23.00
2023-12-09T04:26:28.222Z,23.15
2023-12-09T04:31:20.141Z,24.80
2023-12-09T04:36:12.551Z,25.35
2023-12-09T04:41:05.431Z,23.60
2023-12-09T04:45:57.282Z,25.70
2023-12-09T04:50:49.391Z,23.35
2023-12-09T04:55:41.842Z,24.75
2023-12-09T05:00:33.841Z,24.58
2023-12-09T05:05:26.568Z,23.52
2023-12-09T05:10:18.408Z,19.02
2023-12-09T05:15:11.045Z,22.13
2023-12-09T05:20:04.635Z,26.95
2023-12-09T05:24:56.458Z,25.90
2023-12-09T05:29:48.267Z,28.83
2023-12-09T05:34:40.226Z,25.05
2023-12-09T05:39:32.174Z,102.45
2023-12-09T05:44:24.026Z,32.38
2023-12-09T05:49:16.220Z,67.85
2023-12-09T05:54:08.201Z,32.97
2023-12-09T05:59:00.085Z,42.10
2023-12-09T06:03:51.900Z,24.92
2023-12-09T06:08:43.770Z,29.80
2023-12-09T06:13:35.713Z,25.25
2023-12-09T06:18:27.766Z,26.55
2023-12-09T06:23:19.740Z,29.98
2023-12-09T06:28:11.629Z,26.83
2023-12-09T06:33:03.695Z,32.63
2023-12-09T06:37:56.320Z,31.05
2023-12-09T06:42:48.288Z,34.10
2023-12-09T06:47:40.237Z,31.00
2023-12-09T06:52:32.145Z,32.40
2023-12-09T06:57:24.135Z,33.95
2023-12-09T07:02:16.037Z,37.53
2023-12-09T07:07:13.635Z,39.20
2023-12-09T07:12:10.326Z,36.47
2023-12-09T07:17:02.179Z,36.55
2023-12-09T07:21:54.225Z,33.53
2023-12-09T07:26:46.115Z,33.15
2023-12-09T07:31:38.142Z,34.42
2023-12-09T07:36:30.053Z,37.47
2023-12-09T07:41:21.864Z,33.08
2023-12-09T07:46:13.681Z,37.03
2023-12-09T07:51:05.837Z,36.90
2023-12-09T07:55:58.533Z,37.40
2023-12-09T08:00:50.387Z,35.15
2023-12-09T08:05:44.315Z,40.08
2023-12-09T08:10:37.586Z,36.75
2023-12-09T08:15:29.334Z,37.95
2023-12-09T08:20:21.513Z,40.97
2023-12-09T08:25:14.203Z,61.42
2023-12-09T08:30:11.748Z,38.80
2023-12-09T08:35:09.627Z,35.20
2023-12-09T08:40:12.999Z,41.83
2023-12-09T08:45:05.449Z,38.22
2023-12-09T08:49:57.268Z,39.22
2023-12-09T08:54:49.187Z,37.55
2023-12-09T08:59:41.080Z,34.75
2023-12-09T09:04:32.849Z,36.08
2023-12-09T09:09:24.638Z,42.38
2023-12-09T09:14:16.725Z,38.20
2023-12-09T09:19:08.733Z,38.05
2023-12-09T09:24:00.769Z,42.95
2023-12-09T09:28:52.579Z,41.47
2023-12-09T09:33:44.542Z,38.83
2023-12-09T09:38:36.529Z,38.78
2023-12-09T09:43:32.073Z,32.85
2023-12-09T09:48:25.913Z,33.92
2023-12-09T09:53:22.102Z,29.75
2023-12-09T09:58:14.480Z,28.63
2023-12-09T10:03:06.856Z,27.30
2023-12-09T10:07:59.057Z,26.13
2023-12-09T10:12:51.791Z,26.50
2023-12-09T10:17:43.847Z,27.25
2023-12-09T10:22:36.329Z,21.25
2023-12-09T10:27:28.362Z,24.92
2023-12-09T10:32:22.018Z,25.17
2023-12-09T10:37:13.998Z,23.58
2023-12-09T10:42:06.173Z,21.40
2023-12-09T10:46:58.013Z,24.55
2023-12-09T10:51:49.890Z,20.60
2023-12-09T10:56:41.991Z,17.77
2023-12-09T11:01:34.011Z,15.45
2023-12-09T11:06:29.067Z,18.48
2023-12-09T11:11:21.001Z,16.27
2023-12-09T11:16:14.965Z,17.58
2023-12-09T11:21:09.935Z,18.40
2023-12-09T11:26:01.849Z,12.55
2023-12-09T11:30:57.379Z,13.30
2023-12-09T11:35:49.783Z,13.18
2023-12-09T11:40:42.287Z,16.60
2023-12-09T11:45:34.290Z,14.13
2023-12-09T11:50:28.551Z,13.50
2023-12-09T11:55:20.922Z,12.32
2023-12-09T12:00:13.375Z,14.13
2023-12-09T12:05:10.246Z,15.70
2023-12-09T12:10:02.281Z,10.10
2023-12-09T12:14:54.186Z,9.98
2023-12-09T12:19:46.245Z,8.07
2023-12-09T12:24:42.208Z,8.23
2023-12-09T12:29:34.041Z,10.35
2023-12-09T12:34:26.127Z,10.98
2023-12-09T12:39:18.062Z,10.93
2023-12-09T12:44:09.972Z,11.20
2023-12-09T12:49:02.068Z,14.23
2023-12-09T12:53:54.113Z,12.75
2023-12-09T12:58:45.934Z,10.60
2023-12-09T13:03:37.833Z,10.13
2023-12-09T13:08:29.705Z,10.00
2023-12-09T13:13:21.478Z,10.52
2023-12-09T13:18:14.136Z,11.60
2023-12-09T13:23:06.245Z,10.43
2023-12-09T13:27:58.925Z,10.70
2023-12-09T13:32:50.790Z,16.13
2023-12-09T13:37:44.393Z,11.40
2023-12-09T13:42:36.582Z,10.85
2023-12-09T13:47:28.386Z,11.57
2023-12-09T13:52:20.250Z,10.50
2023-12-09T13:57:12.143Z,10.02
2023-12-09T14:02:04.135Z,13.30
2023-12-09T14:06:55.986Z,9.45
2023-12-09T14:11:47.812Z,10.43
2023-12-09T14:16:41.519Z,15.60
2023-12-09T14:21:34.336Z,19.98
2023-12-09T14:26:29.392Z,11.20
2023-12-09T14:31:21.192Z,9.38
2023-12-09T14:36:13.049Z,11.00
2023-12-09T14:41:05.660Z,9.13
2023-12-09T14:45:57.529Z,9.73
2023-12-09T14:50:49.351Z,9.55
2023-12-09T14:55:42.096Z,10.05
2023-12-09T15:00:34.167Z,10.70
2023-12-09T15:05:26.788Z,11.98
2023-12-09T15:10:19.042Z,21.42
2023-12-09T15:15:11.349Z,20.40
2023-12-09T15:20:03.531Z,14.65
2023-12-09T15:24:55.337Z,21.20
2023-12-09T15:29:47.578Z,13.70
2023-12-09T15:34:39.729Z,12.00
2023-12-09T15:39:32.281Z,13.13
2023-12-09T15:44:24.128Z,16.85
2023-12-09T15:49:16.081Z,17.38
2023-12-09T15:54:09.099Z,28.27
2023-12-09T15:59:00.968Z,20.40
2023-12-09T16:03:53.557Z,19.60
2023-12-09T16:08:45.900Z,20.08
2023-12-09T16:13:37.777Z,21.85
2023-12-09T16:18:29.829Z,21.15
2023-12-09T16:23:21.846Z,21.92
2023-12-09T16:28:13.697Z,25.23
2023-12-09T16:33:05.587Z,26.23
2023-12-09T16:37:57.497Z,24.92
2023-12-09T16:42:49.387Z,26.80
2023-12-09T16:47:42.351Z,24.98
2023-12-09T16:52:34.800Z,22.33
2023-12-09T16:57:26.867Z,23.90
2023-12-09T17:02:18.692Z,22.98
2023-12-09T17:07:10.907Z,24.85
2023-12-09T17:12:02.726Z,24.17
2023-12-09T17:16:55.329Z,20.30
2023-12-09T17:21:47.365Z,25.52
2023-12-09T17:26:39.243Z,25.80
2023-12-09T17:31:31.432Z,26.40
2023-12-09T17:36:26.737Z,27.60
2023-12-09T17:41:18.626Z,22.38
2023-12-09T17:46:10.409Z,27.58
2023-12-09T17:51:02.366Z,30.65
2023-12-09T17:55:54.129Z,29.80
2023-12-09T18:00:46.077Z,24.02
2023-12-09T18:05:38.277Z,26.55
2023-12-09T18:10:30.260Z,22.17
2023-12-09T18:15:22.190Z,22.33
2023-12-09T18:20:14.934Z,20.33
2023-12-09T18:25:07.076Z,20.42
2023-12-09T18:29:58.865Z,18.20
2023-12-09T18:34:50.656Z,16.95
2023-12-09T18:39:42.532Z,17.63
2023-12-09T18:44:34.790Z,15.20
2023-12-09T18:49:26.688Z,15.25
2023-12-09T18:54:18.571Z,13.93
2023-12-09T18:59:10.647Z,16.05
2023-12-09T19:04:03.440Z,16.45
2023-12-09T19:08:55.469Z,19.63
2023-12-09T19:13:47.393Z,21.90
2023-12-09T19:18:39.375Z,19.88
2023-12-09T19:23:31.394Z,22.60
2023-12-09T19:28:23.214Z,26.45
2023-12-09T19:33:15.159Z,36.05
2023-12-09T19:38:07.134Z,39.08
2023-12-09T19:42:59.052Z,38.67
2023-12-09T19:47:51.767Z,29.17
2023-12-09T19:52:44.415Z,31.15
2023-12-09T19:57:36.231Z,35.72
2023-12-09T20:02:28.311Z,33.00
2023-12-09T20:07:20.510Z,38.55
2023-12-09T20:12:12.499Z,35.47
2023-12-09T20:17:05.606Z,34.05
2023-12-09T20:21:57.498Z,41.75
2023-12-09T20:26:49.286Z,35.13
2023-12-09T20:31:43.439Z,40.05
2023-12-09T20:36:35.255Z,36.00
2023-12-09T20:41:28.273Z,54.35
2023-12-09T20:46:20.088Z,43.60
2023-12-09T20:51:11.959Z,38.55
2023-12-09T20:56:05.616Z,59.33
2023-12-09T21:00:59.626Z,39.55
2023-12-09T21:05:51.528Z,29.02
2023-12-09T21:10:43.556Z,43.80
2023-12-09T21:15:35.456Z,34.67
2023-12-09T21:20:28.921Z,33.35
2023-12-09T21:25:20.805Z,36.50
2023-12-09T21:30:12.849Z,34.47
2023-12-09T21:35:05.048Z,40.42
2023-12-09T21:39:57.731Z,46.05
2023-12-09T21:44:50.621Z,38.60
2023-12-09T21:49:42.691Z,44.60
2023-12-09T21:54:36.331Z,50.25
2023-12-09T21:59:28.146Z,48.05
2023-12-09T22:04:20.132Z,46.33
2023-12-09T22:09:14.784Z,39.83
2023-12-09T22:14:06.639Z,49.72
2023-12-09T22:18:58.672Z,49.97
2023-12-09T22:23:52.046Z,47.78
2023-12-09T22:28:44.788Z,53.75
2023-12-09T22:33:41.267Z,48.30
2023-12-09T22:38:33.358Z,47.20
2023-12-09T22:43:25.257Z,51.83
2023-12-09T22:48:17.213Z,48.15
2023-12-09T22:53:09.094Z,49.20
2023-12-09T22:58:01.047Z,43.78
2023-12-09T23:02:52.923Z,48.25
2023-12-09T23:07:44.772Z,46.10
2023-12-09T23:12:36.631Z,37.13
2023-12-09T23:17:28.546Z,38.55
2023-12-09T23:22:20.558Z,32.15
2023-12-09T23:27:12.412Z,38.20
2023-12-09T23:32:04.696Z,30.55
2023-12-09T23:36:56.672Z,32.28
2023-12-09T23:41:49.138Z,27.20
2023-12-09T23:46:40.986Z,24.33
2023-12-09T23:51:32.916Z,22.83
2023-12-09T23:56:24.836Z,27.52
